Time;durP1;ratioP1;P1;durP2;ratioP2;P2;SDS_P1;SDS_P2;PMS_P1;PMS_P2;Temp;Humidity;BMP_temperature;BMP_pressure;BME280_temperature;BME280_humidity;BME280_pressure;Samples;Min_cycle;Max_cycle;Signal;HPM_P1;HPM_P2
2022/10/04 00:01:53;;;;;;;18.52;10.02;;;;;;;;;;5065197;28;20497;-66
2022/10/04 00:04:19;;;;;;;19.20;8.98;;;;;;;;;;5059548;28;20033;-66
2022/10/04 00:06:47;;;;;;;14.93;8.27;;;;;;;;;;5057728;28;20045;-66
2022/10/04 00:09:22;;;;;;;17.83;8.60;;;;;;;;;;5055847;28;20041;-66
2022/10/04 00:11:49;;;;;;;18.98;8.98;;;;;;;;;;5051807;28;20524;-66
2022/10/04 00:14:18;;;;;;;17.58;8.15;;;;;;;;;;5067025;28;20492;-66
2022/10/04 00:16:44;;;;;;;16.58;8.25;;;;;;;;;;5069733;28;20412;-66
2022/10/04 00:19:19;;;;;;;18.75;8.07;;;;;;;;;;5038612;28;20072;-66
2022/10/04 00:21:55;;;;;;;18.92;7.82;;;;;;;;;;5061788;28;20032;-66
2022/10/04 00:24:25;;;;;;;16.83;8.07;;;;;;;;;;5066481;28;20071;-67
2022/10/04 00:26:51;;;;;;;20.77;7.57;;;;;;;;;;5056170;28;20540;-67
2022/10/04 00:29:26;;;;;;;18.95;8.73;;;;;;;;;;5053214;28;20037;-67
2022/10/04 00:32:11;;;;;;;14.98;7.70;;;;;;;;;;5038401;28;20131;-76
2022/10/04 00:34:50;;;;;;;18.58;8.50;;;;;;;;;;5064194;28;20056;-77
2022/10/04 00:37:17;;;;;;;17.08;7.30;;;;;;;;;;5058079;28;20437;-77
2022/10/04 00:39:45;;;;;;;15.77;8.15;;;;;;;;;;5062155;28;20541;-77
2022/10/04 00:42:22;;;;;;;16.20;8.15;;;;;;;;;;5064232;28;20040;-77
2022/10/04 00:44:54;;;;;;;15.10;8.15;;;;;;;;;;5059066;28;20104;-77
2022/10/04 00:47:20;;;;;;;17.98;7.85;;;;;;;;;;5064516;28;20040;-77
2022/10/04 00:49:49;;;;;;;15.55;8.00;;;;;;;;;;5061707;28;20119;-77
2022/10/04 00:52:41;;;;;;;21.45;7.78;;;;;;;;;;5052682;28;20134;-77
2022/10/04 00:55:09;;;;;;;21.48;7.47;;;;;;;;;;5052397;28;20060;-77
2022/10/04 00:57:41;;;;;;;15.32;7.25;;;;;;;;;;5070310;28;20039;-77
2022/10/04 01:00:18;;;;;;;18.73;7.65;;;;;;;;;;5052009;28;20413;-77
2022/10/04 01:02:59;;;;;;;19.38;8.60;;;;;;;;;;5065203;28;20037;-77
2022/10/04 01:05:29;;;;;;;20.52;8.10;;;;;;;;;;5051115;28;20041;-77
2022/10/04 01:08:03;;;;;;;20.60;8.57;;;;;;;;;;5061354;28;20441;-77
2022/10/04 01:10:31;;;;;;;20.30;8.13;;;;;;;;;;5055776;28;20048;-77
2022/10/04 01:13:06;;;;;;;18.15;7.22;;;;;;;;;;5060150;28;20627;-77
2022/10/04 01:15:50;;;;;;;12.83;7.87;;;;;;;;;;5059021;28;20045;-77
2022/10/04 01:18:28;;;;;;;16.73;7.82;;;;;;;;;;5062320;28;20309;-77
2022/10/04 01:21:12;;;;;;;23.55;8.43;;;;;;;;;;5061907;28;20037;-77
2022/10/04 01:23:40;;;;;;;17.55;7.63;;;;;;;;;;5070291;28;20032;-77
2022/10/04 01:26:32;;;;;;;20.77;8.30;;;;;;;;;;5056139;28;20056;-77
2022/10/04 01:29:07;;;;;;;15.68;8.38;;;;;;;;;;5051939;28;20044;-77
2022/10/04 01:31:34;;;;;;;19.25;9.02;;;;;;;;;;5060306;28;20048;-77
2022/10/04 01:34:01;;;;;;;20.23;8.55;;;;;;;;;;5058994;28;20040;-77
2022/10/04 01:36:28;;;;;;;15.68;8.52;;;;;;;;;;5057139;28;20091;-77
2022/10/04 01:38:54;;;;;;;19.65;8.10;;;;;;;;;;5058658;28;20072;-66
2022/10/04 01:41:43;;;;;;;16.40;9.02;;;;;;;;;;5055341;28;20389;-77
2022/10/04 01:44:12;;;;;;;20.70;8.45;;;;;;;;;;5046084;28;20495;-77
2022/10/04 01:46:39;;;;;;;19.58;8.65;;;;;;;;;;5048407;28;20557;-77
2022/10/04 01:49:16;;;;;;;21.73;8.68;;;;;;;;;;5062635;28;20052;-77
2022/10/04 01:51:45;;;;;;;14.13;8.25;;;;;;;;;;5068363;28;20107;-77
2022/10/04 01:54:13;;;;;;;14.02;6.82;;;;;;;;;;5056182;28;20032;-77
2022/10/04 01:56:42;;;;;;;17.85;8.38;;;;;;;;;;5053978;28;20041;-77
2022/10/04 01:59:14;;;;;;;20.67;8.10;;;;;;;;;;5067984;28;20540;-77
2022/10/04 02:01:52;;;;;;;18.05;8.88;;;;;;;;;;5045868;28;20049;-77
2022/10/04 02:04:23;;;;;;;15.23;7.35;;;;;;;;;;5053842;28;20041;-77
2022/10/04 02:06:52;;;;;;;17.90;7.80;;;;;;;;;;5053269;28;20120;-77
2022/10/04 02:09:21;;;;;;;17.50;7.20;;;;;;;;;;5052836;28;20071;-67
2022/10/04 02:11:52;;;;;;;14.50;7.63;;;;;;;;;;5053660;28;20052;-67
2022/10/04 02:14:21;;;;;;;19.23;9.23;;;;;;;;;;5045410;28;20446;-67
2022/10/04 02:16:51;;;;;;;18.33;9.68;;;;;;;;;;5064231;28;20044;-67
2022/10/04 02:19:18;;;;;;;16.33;6.93;;;;;;;;;;5069949;28;20032;-66
2022/10/04 02:21:45;;;;;;;16.75;9.20;;;;;;;;;;5061047;28;20045;-77
2022/10/04 02:24:12;;;;;;;16.02;9.38;;;;;;;;;;5057051;28;20078;-67
2022/10/04 02:26:38;;;;;;;19.48;8.70;;;;;;;;;;5070581;28;20051;-66
2022/10/04 02:29:04;;;;;;;19.05;8.90;;;;;;;;;;5057521;28;20047;-66
2022/10/04 02:34:18;;;;;;;19.85;9.73;;;;;;;;;;5062867;28;20502;-67
2022/10/04 02:36:45;;;;;;;18.65;8.65;;;;;;;;;;5060387;28;20112;-67
2022/10/04 02:39:16;;;;;;;17.15;8.63;;;;;;;;;;5054470;28;20079;-66
2022/10/04 02:41:48;;;;;;;21.55;9.48;;;;;;;;;;5066750;28;20589;-67
2022/10/04 02:44:26;;;;;;;17.42;10.23;;;;;;;;;;5059081;28;20119;-67
2022/10/04 02:47:18;;;;;;;21.55;11.00;;;;;;;;;;5060789;28;20116;-66
2022/10/04 02:49:46;;;;;;;21.65;10.13;;;;;;;;;;5055441;28;20110;-66
2022/10/04 02:52:13;;;;;;;23.65;11.30;;;;;;;;;;5055666;28;20048;-66
2022/10/04 02:54:51;;;;;;;24.10;11.13;;;;;;;;;;5061379;28;20052;-66
2022/10/04 02:57:21;;;;;;;23.08;11.13;;;;;;;;;;5063176;28;20055;-66
2022/10/04 02:59:48;;;;;;;20.40;11.50;;;;;;;;;;5061050;28;20053;-66
2022/10/04 03:02:33;;;;;;;22.67;11.52;;;;;;;;;;5064907;28;20033;-67
2022/10/04 03:05:03;;;;;;;23.63;11.68;;;;;;;;;;5065871;28;20048;-67
2022/10/04 03:07:31;;;;;;;26.33;12.05;;;;;;;;;;5062870;28;20032;-66
2022/10/04 03:09:57;;;;;;;23.58;12.10;;;;;;;;;;5053933;28;20445;-67
2022/10/04 03:12:23;;;;;;;21.58;11.27;;;;;;;;;;5065105;28;20071;-67
2022/10/04 03:14:52;;;;;;;24.33;11.32;;;;;;;;;;5066588;28;20040;-66
2022/10/04 03:17:18;;;;;;;32.08;10.70;;;;;;;;;;5061075;28;20047;-67
2022/10/04 03:19:47;;;;;;;19.85;10.85;;;;;;;;;;5070042;28;20045;-67
2022/10/04 03:22:13;;;;;;;22.35;11.48;;;;;;;;;;5067030;28;20389;-66
2022/10/04 03:24:45;;;;;;;22.48;11.23;;;;;;;;;;5071610;28;20043;-67
2022/10/04 03:27:16;;;;;;;27.95;11.43;;;;;;;;;;5068345;28;20032;-77
2022/10/04 03:29:42;;;;;;;25.38;11.63;;;;;;;;;;5053611;28;20052;-77
2022/10/04 03:32:13;;;;;;;24.52;11.63;;;;;;;;;;5055057;28;20124;-76
2022/10/04 03:34:40;;;;;;;29.40;11.43;;;;;;;;;;5073108;28;20554;-77
2022/10/04 03:37:08;;;;;;;31.35;13.57;;;;;;;;;;5058210;28;20044;-77
2022/10/04 03:39:36;;;;;;;25.52;12.02;;;;;;;;;;5052266;28;20053;-77
2022/10/04 03:42:05;;;;;;;24.00;11.70;;;;;;;;;;5055374;28;20041;-77
2022/10/04 03:44:31;;;;;;;28.60;11.68;;;;;;;;;;5063771;28;20047;-77
2022/10/04 03:46:57;;;;;;;25.30;12.10;;;;;;;;;;5056635;28;20490;-76
2022/10/04 03:49:32;;;;;;;23.42;12.27;;;;;;;;;;5066216;28;20041;-77
2022/10/04 03:51:59;;;;;;;22.90;12.70;;;;;;;;;;5053567;28;20436;-77
2022/10/04 03:54:26;;;;;;;26.60;12.32;;;;;;;;;;5057707;28;20036;-77
2022/10/04 03:56:53;;;;;;;26.83;11.77;;;;;;;;;;5064219;28;20041;-77
2022/10/04 03:59:20;;;;;;;24.45;12.15;;;;;;;;;;5064833;28;20047;-77
2022/10/04 04:01:46;;;;;;;18.63;10.70;;;;;;;;;;5059045;28;20094;-78
2022/10/04 04:04:24;;;;;;;26.90;12.38;;;;;;;;;;5052209;28;20389;-77
2022/10/04 04:06:50;;;;;;;25.30;12.05;;;;;;;;;;5050026;28;20055;-77
2022/10/04 04:09:21;;;;;;;23.38;13.32;;;;;;;;;;5050718;28;20037;-77
2022/10/04 04:11:49;;;;;;;26.75;13.07;;;;;;;;;;5047930;28;20057;-77
2022/10/04 04:14:20;;;;;;;27.80;13.65;;;;;;;;;;5051598;28;20098;-77
2022/10/04 04:16:46;;;;;;;24.80;13.15;;;;;;;;;;5049934;28;20091;-77
2022/10/04 04:19:15;;;;;;;24.77;13.95;;;;;;;;;;5052475;28;20040;-77
2022/10/04 04:21:41;;;;;;;30.15;13.30;;;;;;;;;;5052203;28;20047;-77
2022/10/04 04:24:30;;;;;;;31.52;14.52;;;;;;;;;;5051758;28;20090;-77
2022/10/04 04:26:58;;;;;;;31.77;13.57;;;;;;;;;;5050487;28;20171;-77
2022/10/04 04:29:43;;;;;;;27.80;14.07;;;;;;;;;;5051633;28;20406;-77
2022/10/04 04:32:17;;;;;;;27.95;14.82;;;;;;;;;;5050556;28;20051;-77
2022/10/04 04:35:07;;;;;;;28.33;14.75;;;;;;;;;;5052014;28;20037;-77
2022/10/04 04:37:39;;;;;;;28.92;14.85;;;;;;;;;;5049782;28;20040;-78
2022/10/04 04:40:18;;;;;;;27.27;14.68;;;;;;;;;;5042557;28;20094;-77
2022/10/04 04:42:45;;;;;;;26.55;15.52;;;;;;;;;;5053663;28;20045;-77
2022/10/04 04:45:21;;;;;;;30.30;16.33;;;;;;;;;;5051638;28;20041;-78
2022/10/04 04:47:49;;;;;;;35.97;15.95;;;;;;;;;;5052286;28;20506;-77
2022/10/04 04:50:26;;;;;;;25.38;14.85;;;;;;;;;;5047133;28;20121;-77
2022/10/04 04:53:02;;;;;;;35.08;15.65;;;;;;;;;;5047887;28;20055;-77
2022/10/04 04:55:32;;;;;;;28.08;15.02;;;;;;;;;;5049985;28;20045;-77
2022/10/04 04:57:59;;;;;;;29.77;16.08;;;;;;;;;;5051876;28;20397;-77
2022/10/04 05:00:32;;;;;;;28.02;15.82;;;;;;;;;;5060568;28;20041;-77
2022/10/04 05:02:59;;;;;;;31.30;15.52;;;;;;;;;;5055741;28;20037;-77
2022/10/04 05:05:25;;;;;;;28.80;16.02;;;;;;;;;;5050804;28;20124;-77
2022/10/04 05:08:10;;;;;;;31.42;14.82;;;;;;;;;;5059102;28;20040;-77
2022/10/04 05:10:38;;;;;;;30.45;16.50;;;;;;;;;;5046971;28;20147;-77
2022/10/04 05:13:07;;;;;;;29.08;16.35;;;;;;;;;;5062210;28;20044;-77
2022/10/04 05:15:41;;;;;;;32.63;16.85;;;;;;;;;;5050337;28;20049;-77
2022/10/04 05:18:16;;;;;;;29.33;16.33;;;;;;;;;;5043109;28;20045;-77
2022/10/04 05:20:46;;;;;;;34.83;16.73;;;;;;;;;;5050332;28;20095;-77
2022/10/04 05:23:12;;;;;;;26.98;15.52;;;;;;;;;;5064949;28;20049;-77
2022/10/04 05:25:38;;;;;;;29.52;17.52;;;;;;;;;;5050115;28;20547;-77
2022/10/04 05:28:04;;;;;;;33.78;16.25;;;;;;;;;;5049641;28;20067;-77
2022/10/04 05:30:47;;;;;;;30.33;16.15;;;;;;;;;;5050868;28;20037;-77
2022/10/04 05:33:14;;;;;;;34.25;16.00;;;;;;;;;;5057038;28;20057;-77
2022/10/04 05:35:53;;;;;;;30.95;16.73;;;;;;;;;;5050277;28;20092;-77
2022/10/04 05:38:27;;;;;;;33.45;16.65;;;;;;;;;;5050513;28;20045;-77
2022/10/04 05:41:02;;;;;;;29.50;16.17;;;;;;;;;;5050826;28;20037;-77
2022/10/04 05:43:30;;;;;;;30.10;15.95;;;;;;;;;;5050737;28;20086;-77
2022/10/04 05:46:13;;;;;;;28.38;15.77;;;;;;;;;;5050998;28;20450;-77
2022/10/04 05:48:42;;;;;;;30.55;16.83;;;;;;;;;;5055658;28;20119;-77
2022/10/04 05:51:22;;;;;;;33.20;15.65;;;;;;;;;;5053672;28;20044;-77
2022/10/04 05:53:48;;;;;;;30.27;16.42;;;;;;;;;;5088820;28;20040;-77
2022/10/04 05:56:30;;;;;;;29.38;16.60;;;;;;;;;;5073331;28;20043;-77
2022/10/04 05:59:15;;;;;;;33.78;17.38;;;;;;;;;;5071787;28;20039;-76
2022/10/04 06:01:44;;;;;;;28.55;15.93;;;;;;;;;;5060855;28;20040;-77
2022/10/04 06:04:10;;;;;;;28.15;15.90;;;;;;;;;;5057575;28;20037;-77
2022/10/04 06:06:42;;;;;;;30.75;16.63;;;;;;;;;;5057428;28;20036;-76
2022/10/04 06:09:14;;;;;;;27.50;15.10;;;;;;;;;;5074651;28;20029;-77
2022/10/04 06:12:00;;;;;;;27.05;16.45;;;;;;;;;;5072969;28;20055;-75
2022/10/04 06:14:46;;;;;;;30.23;16.40;;;;;;;;;;5058147;28;20052;-75
2022/10/04 06:17:20;;;;;;;28.25;15.32;;;;;;;;;;5073250;28;20535;-77
2022/10/04 06:20:10;;;;;;;26.67;15.10;;;;;;;;;;5068464;28;20037;-76
2022/10/04 06:22:43;;;;;;;26.33;14.77;;;;;;;;;;5047545;28;20481;-76
2022/10/04 06:25:13;;;;;;;22.15;13.32;;;;;;;;;;5069485;28;20040;-76
2022/10/04 06:27:52;;;;;;;26.80;14.02;;;;;;;;;;5057354;28;20054;-76
2022/10/04 06:30:19;;;;;;;25.70;13.82;;;;;;;;;;5068045;28;20404;-77
2022/10/04 06:32:48;;;;;;;22.35;12.57;;;;;;;;;;5068809;28;20044;-76
2022/10/04 06:35:33;;;;;;;20.25;12.00;;;;;;;;;;5059738;28;20032;-76
2022/10/04 06:38:02;;;;;;;20.80;12.53;;;;;;;;;;5059739;28;20041;-76
2022/10/04 06:40:28;;;;;;;19.88;12.50;;;;;;;;;;5055623;28;20299;-77
2022/10/04 06:43:01;;;;;;;20.10;10.98;;;;;;;;;;5053944;28;20444;-76
2022/10/04 06:45:43;;;;;;;20.88;11.82;;;;;;;;;;5052845;28;20065;-75
2022/10/04 06:48:18;;;;;;;19.25;10.80;;;;;;;;;;5038936;28;20477;-76
2022/10/04 06:50:51;;;;;;;17.42;11.10;;;;;;;;;;5073585;28;20040;-74
2022/10/04 06:53:33;;;;;;;16.60;10.60;;;;;;;;;;5073730;28;20040;-76
2022/10/04 06:56:06;;;;;;;19.02;10.98;;;;;;;;;;5061368;28;20181;-77
2022/10/04 06:58:44;;;;;;;21.10;11.40;;;;;;;;;;5072091;28;20478;-73
2022/10/04 07:01:10;;;;;;;16.38;10.65;;;;;;;;;;5072004;28;20040;-77
2022/10/04 07:03:45;;;;;;;20.98;10.60;;;;;;;;;;5073219;28;20091;-77
2022/10/04 07:06:12;;;;;;;15.70;10.38;;;;;;;;;;5057929;28;20040;-76
2022/10/04 07:08:38;;;;;;;18.80;10.88;;;;;;;;;;5055847;28;20032;-77
2022/10/04 07:11:13;;;;;;;19.05;11.90;;;;;;;;;;5072047;28;20094;-76
2022/10/04 07:13:39;;;;;;;16.00;10.43;;;;;;;;;;5066778;28;20571;-68
2022/10/04 07:16:12;;;;;;;19.83;10.98;;;;;;;;;;5059391;28;20551;-67
2022/10/04 07:18:57;;;;;;;16.65;10.52;;;;;;;;;;5063070;28;20114;-67
2022/10/04 07:21:26;;;;;;;16.95;10.30;;;;;;;;;;5062732;28;20101;-68
2022/10/04 07:23:54;;;;;;;17.77;10.20;;;;;;;;;;5071705;28;20119;-67
2022/10/04 07:26:33;;;;;;;16.30;10.68;;;;;;;;;;5072009;28;20537;-68
2022/10/04 07:29:19;;;;;;;18.92;10.77;;;;;;;;;;5058083;28;20029;-68
2022/10/04 07:31:46;;;;;;;;;;;;;;;;;;5072139;28;20207;-69
2022/10/04 07:34:22;;;;;;;17.33;10.32;;;;;;;;;;5071156;28;19923;-68
2022/10/04 07:36:56;;;;;;;20.73;12.15;;;;;;;;;;5070385;28;20493;-67
2022/10/04 07:39:29;;;;;;;21.02;12.05;;;;;;;;;;5054368;28;20120;-68
2022/10/04 07:41:57;;;;;;;19.65;11.77;;;;;;;;;;5064316;28;20123;-67
2022/10/04 07:44:32;;;;;;;17.80;11.88;;;;;;;;;;5070410;28;20040;-67
2022/10/04 07:47:02;;;;;;;19.10;11.73;;;;;;;;;;5063542;28;20072;-67
2022/10/04 07:49:30;;;;;;;18.35;11.48;;;;;;;;;;5066915;28;20041;-68
2022/10/04 07:52:15;;;;;;;17.08;10.52;;;;;;;;;;5067541;28;20047;-69
2022/10/04 07:55:02;;;;;;;15.80;10.48;;;;;;;;;;5070892;28;20044;-68
2022/10/04 07:57:28;;;;;;;;;;;;;;;;;;5088426;28;20037;-67
2022/10/04 08:00:09;;;;;;;19.10;10.27;;;;;;;;;;5066098;28;19916;-68
2022/10/04 08:02:47;;;;;;;16.45;9.88;;;;;;;;;;5061704;28;20048;-67
2022/10/04 08:05:29;;;;;;;15.63;9.88;;;;;;;;;;5072661;28;20039;-68
2022/10/04 08:07:58;;;;;;;14.60;9.02;;;;;;;;;;5072423;28;20032;-76
2022/10/04 08:10:43;;;;;;;17.95;10.00;;;;;;;;;;5072447;28;20115;-76
2022/10/04 08:13:21;;;;;;;16.13;9.38;;;;;;;;;;5072738;28;20426;-76
2022/10/04 08:15:49;;;;;;;15.50;8.90;;;;;;;;;;5051337;28;20079;-77
2022/10/04 08:18:18;;;;;;;14.00;8.82;;;;;;;;;;5065608;28;20032;-78
2022/10/04 08:20:50;;;;;;;16.20;8.05;;;;;;;;;;5062483;28;20386;-77
2022/10/04 08:23:28;;;;;;;15.60;7.97;;;;;;;;;;5072598;28;20048;-77
2022/10/04 08:25:54;;;;;;;17.65;7.75;;;;;;;;;;5044086;28;20048;-77
2022/10/04 08:31:16;;;;;;;12.23;6.97;;;;;;;;;;5059299;28;20047;-68
2022/10/04 08:33:51;;;;;;;14.50;7.28;;;;;;;;;;5072107;28;20512;-68
2022/10/04 08:36:17;;;;;;;14.07;7.78;;;;;;;;;;5071130;28;20048;-69
2022/10/04 08:38:47;;;;;;;14.55;7.22;;;;;;;;;;5058257;28;20074;-69
2022/10/04 08:41:35;;;;;;;10.88;7.00;;;;;;;;;;5045804;28;20024;-70
2022/10/04 08:44:09;;;;;;;13.52;7.18;;;;;;;;;;5066056;28;20521;-69
2022/10/04 08:46:51;;;;;;;15.20;7.35;;;;;;;;;;5068507;28;20116;-69
2022/10/04 08:49:17;;;;;;;14.05;7.05;;;;;;;;;;5063821;28;20037;-69
2022/10/04 08:52:02;;;;;;;11.90;6.82;;;;;;;;;;5058620;28;20097;-69
2022/10/04 08:55:01;;;;;;;11.95;6.78;;;;;;;;;;5051377;28;20047;-70
2022/10/04 08:57:45;;;;;;;10.63;5.95;;;;;;;;;;5018823;28;20053;-69
2022/10/04 09:00:14;;;;;;;11.02;5.85;;;;;;;;;;5061052;28;20102;-67
2022/10/04 09:02:46;;;;;;;10.05;6.00;;;;;;;;;;5049907;28;20052;-67
2022/10/04 09:05:19;;;;;;;12.80;5.60;;;;;;;;;;5065284;28;20448;-67
2022/10/04 09:08:08;;;;;;;9.25;5.10;;;;;;;;;;5051684;28;20533;-67
2022/10/04 09:10:43;;;;;;;9.75;5.60;;;;;;;;;;5050236;28;20083;-67
2022/10/04 09:13:30;;;;;;;10.90;5.25;;;;;;;;;;5051070;28;20513;-67
2022/10/04 09:16:11;;;;;;;8.38;5.10;;;;;;;;;;5055603;28;20120;-68
2022/10/04 09:18:37;;;;;;;8.57;4.78;;;;;;;;;;5051375;28;20065;-77
2022/10/04 09:21:11;;;;;;;7.82;4.70;;;;;;;;;;5050055;28;20537;-67
2022/10/04 09:23:46;;;;;;;9.20;5.30;;;;;;;;;;5051816;28;20049;-69
2022/10/04 09:26:15;;;;;;;8.45;5.22;;;;;;;;;;5050321;28;20045;-68
2022/10/04 09:28:44;;;;;;;12.60;5.32;;;;;;;;;;5053333;28;20052;-79
2022/10/04 09:31:13;;;;;;;9.68;5.40;;;;;;;;;;5054131;28;20052;-78
2022/10/04 09:33:48;;;;;;;9.27;5.43;;;;;;;;;;5055064;28;20044;-76
2022/10/04 09:36:20;;;;;;;9.55;5.40;;;;;;;;;;5055353;28;20037;-77
2022/10/04 09:38:49;;;;;;;9.02;5.00;;;;;;;;;;5053331;28;20129;-76
2022/10/04 09:41:21;;;;;;;11.07;4.93;;;;;;;;;;5054527;28;20037;-78
2022/10/04 09:43:47;;;;;;;7.70;4.70;;;;;;;;;;5061721;28;20037;-79
2022/10/04 09:46:32;;;;;;;9.27;5.03;;;;;;;;;;5054887;28;20032;-75
2022/10/04 09:49:07;;;;;;;9.27;4.72;;;;;;;;;;5081024;28;20409;-77
2022/10/04 09:51:33;;;;;;;11.70;4.95;;;;;;;;;;5061113;28;20045;-69
2022/10/04 09:53:59;;;;;;;9.90;6.03;;;;;;;;;;5055105;28;20513;-75
2022/10/04 09:56:44;;;;;;;10.05;5.13;;;;;;;;;;5052547;28;20554;-72
2022/10/04 09:59:17;;;;;;;7.03;4.65;;;;;;;;;;5064218;28;20059;-72
2022/10/04 10:01:49;;;;;;;8.75;5.18;;;;;;;;;;5056623;28;20041;-71
2022/10/04 10:04:34;;;;;;;8.70;5.28;;;;;;;;;;5063307;28;20047;-70
2022/10/04 10:07:00;;;;;;;10.80;5.73;;;;;;;;;;5065646;28;20048;-76
2022/10/04 10:15:24;;;;;;;8.93;5.05;;;;;;;;;;5067381;28;20596;-75
2022/10/04 10:18:14;;;;;;;8.10;4.82;;;;;;;;;;5042639;28;20052;-70
2022/10/04 10:20:55;;;;;;;7.72;4.90;;;;;;;;;;5053454;28;20562;-69
2022/10/04 10:23:21;;;;;;;9.65;5.22;;;;;;;;;;5074203;28;20047;-68
2022/10/04 10:25:58;;;;;;;9.52;5.03;;;;;;;;;;5069928;28;20041;-68
2022/10/04 10:28:45;;;;;;;9.18;5.15;;;;;;;;;;5054744;28;20037;-75
2022/10/04 10:31:24;;;;;;;9.18;5.40;;;;;;;;;;5052423;28;20127;-75
2022/10/04 10:34:04;;;;;;;10.07;5.07;;;;;;;;;;5074107;28;20076;-76
2022/10/04 10:36:43;;;;;;;8.55;5.03;;;;;;;;;;5063182;28;20044;-77
2022/10/04 10:39:31;;;;;;;9.60;5.10;;;;;;;;;;5067301;28;20048;-77
2022/10/04 10:42:08;;;;;;;12.13;4.97;;;;;;;;;;5065552;28;20045;-76
2022/10/04 10:44:41;;;;;;;8.65;5.40;;;;;;;;;;5046181;28;20486;-69
2022/10/04 10:47:36;;;;;;;10.32;5.50;;;;;;;;;;5058909;28;20063;-70
2022/10/04 10:50:02;;;;;;;10.53;5.10;;;;;;;;;;5071861;28;20106;-73
2022/10/04 10:52:38;;;;;;;8.23;5.28;;;;;;;;;;5035953;28;20045;-73
2022/10/04 10:55:19;;;;;;;9.65;5.50;;;;;;;;;;5055053;28;20044;-71
2022/10/04 10:57:48;;;;;;;9.80;5.57;;;;;;;;;;5058769;28;20513;-72
2022/10/04 11:00:20;;;;;;;10.93;5.93;;;;;;;;;;5055745;28;20045;-72
2022/10/04 11:02:49;;;;;;;7.57;4.95;;;;;;;;;;5055943;28;20055;-71
2022/10/04 11:05:35;;;;;;;7.35;5.10;;;;;;;;;;5053148;28;20086;-71
2022/10/04 11:08:18;;;;;;;8.18;5.25;;;;;;;;;;5050342;28;20577;-71
2022/10/04 11:11:00;;;;;;;9.52;5.30;;;;;;;;;;5052032;28;20110;-71
2022/10/04 11:13:26;;;;;;;10.45;5.15;;;;;;;;;;5051214;28;20052;-70
2022/10/04 11:16:05;;;;;;;11.30;5.38;;;;;;;;;;5053337;28;20072;-70
2022/10/04 11:18:50;;;;;;;9.40;4.93;;;;;;;;;;5056886;28;20120;-70
2022/10/04 11:21:16;;;;;;;8.75;4.60;;;;;;;;;;5052980;28;20093;-71
2022/10/04 11:24:01;;;;;;;7.50;4.80;;;;;;;;;;5050901;28;20127;-70
2022/10/04 11:26:46;;;;;;;9.80;4.85;;;;;;;;;;5054484;28;20124;-71
2022/10/04 11:29:12;;;;;;;11.65;4.43;;;;;;;;;;5052521;28;20042;-76
2022/10/04 11:31:56;;;;;;;8.68;4.70;;;;;;;;;;5053277;28;20041;-76
2022/10/04 11:34:25;;;;;;;7.97;4.88;;;;;;;;;;5046098;28;20098;-75
2022/10/04 11:37:06;;;;;;;10.52;4.80;;;;;;;;;;5051953;28;20418;-70
2022/10/04 11:39:47;;;;;;;7.38;4.80;;;;;;;;;;5050394;28;20043;-71
2022/10/04 11:42:25;;;;;;;8.75;5.18;;;;;;;;;;5052047;28;20037;-70
2022/10/04 11:45:10;;;;;;;11.70;5.63;;;;;;;;;;5051684;28;20048;-70
2022/10/04 11:47:46;;;;;;;8.90;5.60;;;;;;;;;;5049811;28;20120;-70
2022/10/04 11:50:31;;;;;;;9.07;6.00;;;;;;;;;;5055229;28;20048;-69
2022/10/04 11:53:17;;;;;;;9.57;5.00;;;;;;;;;;5051133;28;20057;-69
2022/10/04 11:55:52;;;;;;;8.68;5.15;;;;;;;;;;5061759;28;20101;-80
2022/10/04 11:58:37;;;;;;;11.43;5.22;;;;;;;;;;5071265;28;20048;-79
2022/10/04 12:01:19;;;;;;;8.85;5.00;;;;;;;;;;5043488;28;20047;-80
2022/10/04 12:03:59;;;;;;;9.32;4.85;;;;;;;;;;5056766;28;20447;-82
2022/10/04 12:06:34;;;;;;;8.35;5.28;;;;;;;;;;5057749;28;20090;-84
2022/10/04 12:09:16;;;;;;;9.75;5.15;;;;;;;;;;5054923;28;20048;-84
2022/10/04 12:15:02;;;;;;;7.07;4.90;;;;;;;;;;5050872;28;20061;-82
2022/10/04 12:17:47;;;;;;;11.20;5.72;;;;;;;;;;5035020;28;20013;-78
2022/10/04 12:20:30;;;;;;;10.95;5.22;;;;;;;;;;5051846;28;20529;-79
2022/10/04 12:23:16;;;;;;;9.18;5.05;;;;;;;;;;5061188;28;20047;-83
2022/10/04 12:25:46;;;;;;;9.32;4.68;;;;;;;;;;5067428;28;20114;-82
2022/10/04 12:28:15;;;;;;;7.03;4.60;;;;;;;;;;5050967;28;20501;-81
2022/10/04 12:30:48;;;;;;;7.00;4.20;;;;;;;;;;5050662;28;20040;-81
2022/10/04 12:33:22;;;;;;;7.65;4.38;;;;;;;;;;5051934;28;20045;-82
2022/10/04 12:35:48;;;;;;;7.10;4.28;;;;;;;;;;5051801;28;20048;-81
2022/10/04 12:38:36;;;;;;;10.90;4.60;;;;;;;;;;5050857;28;20512;-81
2022/10/04 12:41:05;;;;;;;9.07;4.80;;;;;;;;;;5052440;28;20108;-81
2022/10/04 12:43:37;;;;;;;8.85;4.72;;;;;;;;;;5050642;28;20041;-70
2022/10/04 12:46:03;;;;;;;8.38;4.70;;;;;;;;;;5050674;28;20483;-70
2022/10/04 12:48:48;;;;;;;8.85;5.00;;;;;;;;;;5058271;28;20388;-70
2022/10/04 12:51:17;;;;;;;8.57;5.13;;;;;;;;;;5071633;28;20036;-69
2022/10/04 12:54:01;;;;;;;9.52;4.70;;;;;;;;;;5062972;28;20044;-69
2022/10/04 12:56:36;;;;;;;10.10;4.87;;;;;;;;;;5065036;28;20490;-69
2022/10/04 12:59:10;;;;;;;8.60;4.80;;;;;;;;;;5059950;28;20433;-69
2022/10/04 13:01:44;;;;;;;9.40;4.85;;;;;;;;;;5072512;28;20385;-68
2022/10/04 13:04:16;;;;;;;10.63;5.07;;;;;;;;;;5067354;28;20045;-69
2022/10/04 13:06:58;;;;;;;8.80;5.00;;;;;;;;;;5070262;28;20033;-69
2022/10/04 13:09:24;;;;;;;8.93;4.75;;;;;;;;;;5044968;28;20087;-68
2022/10/04 13:12:02;;;;;;;9.45;5.07;;;;;;;;;;5072209;28;20056;-68
2022/10/04 13:14:34;;;;;;;7.90;4.90;;;;;;;;;;5069865;28;20336;-68
2022/10/04 13:17:30;;;;;;;10.30;4.50;;;;;;;;;;5067974;28;20048;-69
2022/10/04 13:20:02;;;;;;;6.83;4.23;;;;;;;;;;5010574;28;20095;-70
2022/10/04 13:22:45;;;;;;;9.30;4.38;;;;;;;;;;5067096;28;20064;-68
2022/10/04 13:25:14;;;;;;;7.68;4.63;;;;;;;;;;5054881;28;20040;-69
2022/10/04 13:27:45;;;;;;;7.57;4.30;;;;;;;;;;5057146;28;20072;-69
2022/10/04 13:30:14;;;;;;;7.80;4.07;;;;;;;;;;5053504;28;20037;-70
2022/10/04 13:32:44;;;;;;;8.43;4.30;;;;;;;;;;5049745;28;20053;-72
2022/10/04 13:35:20;;;;;;;6.65;4.20;;;;;;;;;;5025435;28;20048;-67
2022/10/04 13:37:58;;;;;;;7.45;4.57;;;;;;;;;;5050874;28;20071;-67
2022/10/04 13:40:37;;;;;;;7.38;4.03;;;;;;;;;;5054750;28;20059;-67
2022/10/04 13:43:35;;;;;;;11.70;4.80;;;;;;;;;;5055478;28;20124;-67
2022/10/04 13:46:10;;;;;;;10.15;4.35;;;;;;;;;;5027389;28;20056;-67
2022/10/04 13:48:36;;;;;;;7.38;4.28;;;;;;;;;;5062684;28;20501;-66
2022/10/04 13:51:09;;;;;;;9.43;4.68;;;;;;;;;;5061690;28;20115;-66
2022/10/04 13:56:44;;;;;;;9.98;4.22;;;;;;;;;;5059174;28;20049;-67
2022/10/04 13:59:23;;;;;;;8.55;4.43;;;;;;;;;;5073698;28;20128;-67
2022/10/04 14:01:55;;;;;;;8.95;4.85;;;;;;;;;;5066229;28;20115;-74
2022/10/04 14:04:30;;;;;;;7.38;4.10;;;;;;;;;;5074881;28;20045;-76
2022/10/04 14:07:12;;;;;;;8.13;4.20;;;;;;;;;;5069490;28;20072;-75
2022/10/04 14:09:51;;;;;;;9.00;4.38;;;;;;;;;;5067316;28;20324;-76
2022/10/04 14:12:17;;;;;;;6.60;4.28;;;;;;;;;;5049218;28;20046;-76
2022/10/04 14:15:02;;;;;;;6.05;3.67;;;;;;;;;;5066296;28;20044;-66
2022/10/04 14:17:41;;;;;;;7.78;4.18;;;;;;;;;;5044219;28;20036;-66
2022/10/04 14:20:22;;;;;;;10.00;3.83;;;;;;;;;;5037247;28;20048;-66
2022/10/04 14:22:58;;;;;;;9.48;4.43;;;;;;;;;;5072410;28;20126;-67
2022/10/04 14:25:41;;;;;;;10.63;4.68;;;;;;;;;;5072122;28;20075;-66
2022/10/04 14:28:25;;;;;;;7.78;4.20;;;;;;;;;;5059410;28;20033;-66
2022/10/04 14:30:57;;;;;;;9.50;4.07;;;;;;;;;;5072304;28;20041;-68
2022/10/04 14:33:28;;;;;;;8.98;4.10;;;;;;;;;;5063467;28;20037;-66
2022/10/04 14:36:13;;;;;;;8.82;3.92;;;;;;;;;;5072824;28;20103;-66
2022/10/04 14:38:58;;;;;;;9.07;3.95;;;;;;;;;;5069804;28;20280;-66
2022/10/04 14:41:37;;;;;;;6.87;3.60;;;;;;;;;;5050000;28;20039;-66
2022/10/04 14:44:09;;;;;;;10.95;4.50;;;;;;;;;;5063983;28;20049;-66
2022/10/04 14:46:54;;;;;;;7.40;4.32;;;;;;;;;;5061806;28;20037;-66
2022/10/04 14:49:36;;;;;;;8.63;3.88;;;;;;;;;;5052292;28;20041;-66
2022/10/04 14:52:20;;;;;;;12.90;3.80;;;;;;;;;;5060877;28;20040;-66
2022/10/04 14:54:46;;;;;;;8.20;4.28;;;;;;;;;;5059597;28;20524;-66
2022/10/04 14:57:19;;;;;;;10.43;4.03;;;;;;;;;;5064869;28;20514;-66
2022/10/04 15:00:02;;;;;;;7.80;3.97;;;;;;;;;;5065635;28;20045;-66
2022/10/04 15:02:31;;;;;;;10.70;3.75;;;;;;;;;;5073499;28;20036;-67
2022/10/04 15:05:15;;;;;;;11.07;4.03;;;;;;;;;;5059230;28;20037;-66
2022/10/04 15:07:45;;;;;;;5.97;3.72;;;;;;;;;;5073378;28;20550;-67
2022/10/04 15:10:30;;;;;;;8.15;3.75;;;;;;;;;;5070201;28;20124;-67
2022/10/04 15:12:56;;;;;;;10.73;4.05;;;;;;;;;;5065122;28;20053;-66
2022/10/04 15:15:38;;;;;;;7.43;3.90;;;;;;;;;;5072118;28;20049;-66
2022/10/04 15:18:13;;;;;;;5.68;3.75;;;;;;;;;;5068542;28;20098;-67
2022/10/04 15:21:00;;;;;;;6.95;3.85;;;;;;;;;;5070506;28;20036;-67
2022/10/04 15:23:30;;;;;;;11.20;4.50;;;;;;;;;;5064281;28;20045;-66
2022/10/04 15:26:02;;;;;;;12.63;4.30;;;;;;;;;;5058115;28;20079;-67
2022/10/04 15:28:32;;;;;;;6.55;3.70;;;;;;;;;;5056486;28;20037;-67
2022/10/04 15:31:07;;;;;;;10.48;3.75;;;;;;;;;;5070643;28;20045;-67